Hauptseite
METAR-TAF:

METAR-TAF

Flughäfen :

Flughafen Ayacucho

Ayacucho, Peru

Breite: 13-08S, Länge: 074-13W, Höhe: 2740 m

Beobachtung

Neuester Wetterbericht von vor 37 Minuten, um 18:00 UTC
Wind 8 kt aus West/Nordwest, variierte zwischen West/Südwest und Nord/Nordwest
Temperatur 22°C
Luftfeuchtigkeit 27%
Luftdruck 1030 hPa
Sichtweite 10 km oder mehr
Aufgelockert bewölkt in der Höhe von 5000 ft

METAR: SPHO 251800Z 30008KT 250V340 9999 SCT050 22/02 Q1030 RMK BIRD HAZARD RWY 02/20 PP000

Zeit: 13:37 (18:37 UTC)

Prognose

Neuester Wetterbericht von vor 1 Stunde und 37 Minuten, um 17:00 UTC
Gültige Prognose vom 25 um 18 UTC bis 26 um 18 UTC
Wind 5 kt aus Nord/Nordost
Sichtweite 10 km oder mehr
Aufgelockert bewölkt in der Höhe von 5000 ft
Zeitweise
vom 25 um 19 UTC bis 25 um 23 UTC
Wind 12 kt aus Ost

TAF: SPHO 251700Z 2518/2618 02005KT 9999 SCT050 TX24/2519Z TN09/2611Z TEMPO 2519/2523 10012KT

Wetterbeobachtungen und Prognosen von mehr als 4000 Flughäfen (METAR und TAF Bericht).

Die verfügbaren Stationen werden durch gelbe und rote Markierungen auf der Karte dargestellt.

Führen Sie die Maus auf sie, um den Namen der Station zu sehen.

Darauf klicken, um die Beobachtung von Wetterbeobachtungen und Prognosen zu sehen.

Um die Karte zu ändern : klicken Sie auf den grünen Tasten mit einem schwarzen Kreuz Zum Vergrößern, auf den grünen Button mit einem Gedankenstrich zu verkleinern, oder auf die grünen Pfeile für benachbarte Karten.


METAR-TAF: